PWSweather.com
Personal Weather Stations
Station Observations
CARNOUSTIE
Pambride, CarnoustieGB DD7 6DY

PambrideCarnoustieGB DD7 6DY

Lat: 56.50889, Lon: -2.7051

Elevation: 105

Station Type: Oregon Scientific WMR200

www.carnoustieweather.co.uk

High Low Average
Temperature 62.9°F17.2°C 52.5°F11.4°C 55.9°F13.3°C
Dew Point 56.1°F13.4°C 49.1°F9.5°C 53.0°F11.7°C
Winds 8.1 mph 13.0 kmh Calm Calm 4.0 mph E6.4 kmh E
Wind Gusts 9.2 mph14.8 kmh 1.2 mph1.9 kmh 5.0 mph8.0 kmh
Humidity 98% 73% 90%
Pressure 30.09 in1019.0 mb 29.94 in1013.9 mb -
Precipitation 0.03 in0.8 mm - -
Hour Temp Dew Point Humidity Winds Wind Gusts Pressure Precip Precip Rate Daily Precip Total
12:00 AM 53.4°F11.9°C 52.3°F11.3°C 96% 3.5 mph NE5.6 kmh NE 4.6 mph7.4 kmh 30.00 in1015.9 mb - 0.00 in0.0 mm 0.00 in0.0 mm
12:10 AM 53.2°F11.8°C 52.1°F11.2°C 96% 3.5 mph ENE5.6 kmh ENE 5.8 mph9.3 kmh 30.00 in1015.9 mb - 0.00 in0.0 mm 0.00 in0.0 mm
12:20 AM 53.2°F11.8°C 52.1°F11.2°C 96% 4.6 mph NE7.4 kmh NE 4.6 mph7.4 kmh 30.00 in1015.9 mb - 0.00 in0.0 mm 0.00 in0.0 mm
12:30 AM 53.1°F11.7°C 52.0°F11.1°C 96% 3.5 mph E5.6 kmh E 4.6 mph7.4 kmh 30.00 in1015.9 mb - 0.00 in0.0 mm 0.00 in0.0 mm
12:40 AM 53.1°F11.7°C 52.2°F11.2°C 97% 4.6 mph NE7.4 kmh NE 5.8 mph9.3 kmh 29.97 in1014.9 mb - 0.00 in0.0 mm 0.00 in0.0 mm
12:50 AM 53.1°F11.7°C 52.2°F11.2°C 97% 4.6 mph ENE7.4 kmh ENE 5.8 mph9.3 kmh 29.97 in1014.9 mb - 0.00 in0.0 mm 0.00 in0.0 mm
01:00 AM 53.1°F11.7°C 52.2°F11.2°C 97% 4.6 mph NE7.4 kmh NE 4.6 mph7.4 kmh 29.97 in1014.9 mb - 0.00 in0.0 mm 0.00 in0.0 mm
01:10 AM 53.1°F11.7°C 52.2°F11.2°C 97% 3.5 mph ENE5.6 kmh ENE 4.6 mph7.4 kmh 29.97 in1014.9 mb - 0.00 in0.0 mm 0.00 in0.0 mm
01:20 AM 52.9°F11.6°C 52.1°F11.2°C 97% 4.6 mph NE7.4 kmh NE 5.8 mph9.3 kmh 29.97 in1014.9 mb - 0.00 in0.0 mm 0.00 in0.0 mm
01:30 AM 52.9°F11.6°C 52.1°F11.2°C 97% 4.6 mph NE7.4 kmh NE 5.8 mph9.3 kmh 29.97 in1014.9 mb - 0.00 in0.0 mm 0.00 in0.0 mm
01:40 AM 52.9°F11.6°C 52.3°F11.3°C 98% 4.6 mph NE7.4 kmh NE 5.8 mph9.3 kmh 29.97 in1014.9 mb - 0.00 in0.0 mm 0.00 in0.0 mm
01:50 AM 52.7°F11.5°C 52.2°F11.2°C 98% 4.6 mph NE7.4 kmh NE 6.9 mph11.1 kmh 29.97 in1014.9 mb - 0.00 in0.0 mm 0.00 in0.0 mm
02:00 AM 52.9°F11.6°C 52.3°F11.3°C 98% 5.8 mph NE9.3 kmh NE 6.9 mph11.1 kmh 29.97 in1014.9 mb - 0.00 in0.0 mm 0.00 in0.0 mm
02:10 AM 52.8°F11.6°C 52.2°F11.2°C 98% 4.6 mph NE7.4 kmh NE 5.8 mph9.3 kmh 29.94 in1013.9 mb - 0.00 in0.0 mm 0.00 in0.0 mm
02:20 AM 52.9°F11.6°C 52.3°F11.3°C 98% 3.5 mph NE5.6 kmh NE 4.6 mph7.4 kmh 29.96 in1014.6 mb - 0.00 in0.0 mm 0.00 in0.0 mm
02:30 AM 52.7°F11.5°C 52.2°F11.2°C 98% 4.6 mph NE7.4 kmh NE 5.8 mph9.3 kmh 29.97 in1014.9 mb - 0.02 in0.5 mm 0.02 in0.5 mm
02:40 AM 52.7°F11.5°C 52.2°F11.2°C 98% 3.5 mph NE5.6 kmh NE 4.6 mph7.4 kmh 29.97 in1014.9 mb - 0.02 in0.5 mm 0.02 in0.5 mm
02:50 AM 52.7°F11.5°C 52.2°F11.2°C 98% 4.6 mph NE7.4 kmh NE 5.8 mph9.3 kmh 29.97 in1014.9 mb - 0.02 in0.5 mm 0.02 in0.5 mm
03:00 AM 52.7°F11.5°C 52.2°F11.2°C 98% 5.8 mph NE9.3 kmh NE 6.9 mph11.1 kmh 29.97 in1014.9 mb - 0.02 in0.5 mm 0.02 in0.5 mm
03:10 AM 52.7°F11.5°C 52.2°F11.2°C 98% 4.6 mph NE7.4 kmh NE 5.8 mph9.3 kmh 29.97 in1014.9 mb - 0.02 in0.5 mm 0.02 in0.5 mm
03:20 AM 52.7°F11.5°C 52.2°F11.2°C 98% 4.6 mph NE7.4 kmh NE 5.8 mph9.3 kmh 29.97 in1014.9 mb - 0.02 in0.5 mm 0.02 in0.5 mm
03:30 AM 52.5°F11.4°C 52.0°F11.1°C 98% 5.8 mph NE9.3 kmh NE 5.8 mph9.3 kmh 29.97 in1014.9 mb - 0.00 in0.0 mm 0.02 in0.5 mm
03:40 AM 52.5°F11.4°C 52.0°F11.1°C 98% 4.6 mph NNE7.4 kmh NNE 5.8 mph9.3 kmh 29.97 in1014.9 mb - 0.00 in0.0 mm 0.02 in0.5 mm
03:50 AM 52.5°F11.4°C 52.0°F11.1°C 98% 5.8 mph NE9.3 kmh NE 6.9 mph11.1 kmh 29.97 in1014.9 mb - 0.00 in0.0 mm 0.02 in0.5 mm
04:00 AM 52.5°F11.4°C 52.0°F11.1°C 98% 4.6 mph NE7.4 kmh NE 5.8 mph9.3 kmh 29.97 in1014.9 mb - 0.00 in0.0 mm 0.02 in0.5 mm
04:10 AM 52.5°F11.4°C 52.0°F11.1°C 98% 3.5 mph NE5.6 kmh NE 4.6 mph7.4 kmh 29.97 in1014.9 mb - 0.00 in0.0 mm 0.02 in0.5 mm
04:20 AM 52.5°F11.4°C 52.0°F11.1°C 98% 3.5 mph NE5.6 kmh NE 4.6 mph7.4 kmh 29.97 in1014.9 mb - 0.00 in0.0 mm 0.02 in0.5 mm
04:30 AM 52.7°F11.5°C 52.2°F11.2°C 98% 3.5 mph NE5.6 kmh NE 3.5 mph5.6 kmh 29.97 in1014.9 mb - 0.00 in0.0 mm 0.02 in0.5 mm
04:40 AM 52.7°F11.5°C 52.2°F11.2°C 98% 4.6 mph NE7.4 kmh NE 4.6 mph7.4 kmh 29.97 in1014.9 mb - 0.00 in0.0 mm 0.02 in0.5 mm
04:50 AM 52.7°F11.5°C 52.2°F11.2°C 98% 5.8 mph NE9.3 kmh NE 5.8 mph9.3 kmh 29.97 in1014.9 mb - 0.00 in0.0 mm 0.02 in0.5 mm
05:00 AM 52.7°F11.5°C 52.2°F11.2°C 98% 3.5 mph NNE5.6 kmh NNE 4.6 mph7.4 kmh 29.97 in1014.9 mb - 0.00 in0.0 mm 0.02 in0.5 mm
05:10 AM 52.7°F11.5°C 52.2°F11.2°C 98% 4.6 mph N7.4 kmh N 5.8 mph9.3 kmh 29.97 in1014.9 mb - 0.00 in0.0 mm 0.02 in0.5 mm
05:20 AM 52.7°F11.5°C 52.2°F11.2°C 98% 3.5 mph NE5.6 kmh NE 4.6 mph7.4 kmh 29.97 in1014.9 mb - 0.00 in0.0 mm 0.02 in0.5 mm
05:30 AM 52.7°F11.5°C 52.2°F11.2°C 98% 4.6 mph ENE7.4 kmh ENE 4.6 mph7.4 kmh 29.97 in1014.9 mb - 0.00 in0.0 mm 0.02 in0.5 mm
05:40 AM 52.9°F11.6°C 52.3°F11.3°C 98% 4.6 mph NNE7.4 kmh NNE 5.8 mph9.3 kmh 29.97 in1014.9 mb - 0.00 in0.0 mm 0.02 in0.5 mm
05:50 AM 53.1°F11.7°C 52.5°F11.4°C 98% 4.6 mph NNE7.4 kmh NNE 5.8 mph9.3 kmh 29.97 in1014.9 mb - 0.00 in0.0 mm 0.02 in0.5 mm
06:00 AM 53.1°F11.7°C 52.5°F11.4°C 98% 4.6 mph NE7.4 kmh NE 5.8 mph9.3 kmh 29.97 in1014.9 mb - 0.00 in0.0 mm 0.02 in0.5 mm
06:10 AM 53.1°F11.7°C 52.5°F11.4°C 98% 4.6 mph NE7.4 kmh NE 4.6 mph7.4 kmh 29.97 in1014.9 mb - 0.00 in0.0 mm 0.02 in0.5 mm
06:20 AM 53.1°F11.7°C 52.5°F11.4°C 98% 4.6 mph NE7.4 kmh NE 5.8 mph9.3 kmh 29.96 in1014.6 mb - 0.00 in0.0 mm 0.02 in0.5 mm
06:30 AM 53.1°F11.7°C 52.5°F11.4°C 98% 3.5 mph ENE5.6 kmh ENE 4.6 mph7.4 kmh 29.94 in1013.9 mb - 0.00 in0.0 mm 0.02 in0.5 mm
06:40 AM 53.1°F11.7°C 52.5°F11.4°C 98% 4.6 mph NE7.4 kmh NE 5.8 mph9.3 kmh 29.94 in1013.9 mb - 0.00 in0.0 mm 0.02 in0.5 mm
06:50 AM 53.3°F11.8°C 52.8°F11.6°C 98% 4.6 mph NE7.4 kmh NE 5.8 mph9.3 kmh 29.96 in1014.6 mb - 0.00 in0.0 mm 0.02 in0.5 mm
07:00 AM 53.6°F12.0°C 53.0°F11.7°C 98% 4.6 mph N7.4 kmh N 5.8 mph9.3 kmh 29.97 in1014.9 mb - 0.02 in0.5 mm 0.03 in0.8 mm
07:10 AM 53.6°F12.0°C 53.0°F11.7°C 98% 5.8 mph NE9.3 kmh NE 6.9 mph11.1 kmh 29.97 in1014.9 mb - 0.02 in0.5 mm 0.03 in0.8 mm
07:20 AM 53.6°F12.0°C 53.0°F11.7°C 98% 5.8 mph NE9.3 kmh NE 8.1 mph13.0 kmh 29.97 in1014.9 mb - 0.02 in0.5 mm 0.03 in0.8 mm
07:30 AM 53.5°F11.9°C 52.9°F11.6°C 98% 5.8 mph NE9.3 kmh NE 6.9 mph11.1 kmh 29.97 in1014.9 mb - 0.02 in0.5 mm 0.03 in0.8 mm
07:40 AM 53.6°F12.0°C 53.0°F11.7°C 98% 4.6 mph NE7.4 kmh NE 5.8 mph9.3 kmh 30.00 in1015.9 mb - 0.02 in0.5 mm 0.03 in0.8 mm
07:50 AM 53.8°F12.1°C 53.2°F11.8°C 98% 3.5 mph NNE5.6 kmh NNE 4.6 mph7.4 kmh 29.99 in1015.6 mb - 0.02 in0.5 mm 0.03 in0.8 mm
08:00 AM 54.0°F12.2°C 53.4°F11.9°C 98% 4.6 mph NE7.4 kmh NE 5.8 mph9.3 kmh 29.97 in1014.9 mb - 0.00 in0.0 mm 0.03 in0.8 mm
08:10 AM 54.5°F12.5°C 53.9°F12.2°C 98% 4.6 mph NE7.4 kmh NE 5.8 mph9.3 kmh 29.97 in1014.9 mb - 0.00 in0.0 mm 0.03 in0.8 mm
08:20 AM 54.7°F12.6°C 54.1°F12.3°C 98% 4.6 mph NE7.4 kmh NE 8.1 mph13.0 kmh 29.99 in1015.6 mb - 0.00 in0.0 mm 0.03 in0.8 mm
08:30 AM 54.7°F12.6°C 54.1°F12.3°C 98% 5.8 mph E9.3 kmh E 5.8 mph9.3 kmh 30.00 in1015.9 mb - 0.00 in0.0 mm 0.03 in0.8 mm
08:40 AM 55.2°F12.9°C 54.7°F12.6°C 98% 6.9 mph E11.1 kmh E 9.2 mph14.8 kmh 30.00 in1015.9 mb - 0.00 in0.0 mm 0.03 in0.8 mm
08:50 AM 56.0°F13.3°C 55.4°F13.0°C 98% 4.6 mph E7.4 kmh E 5.8 mph9.3 kmh 30.00 in1015.9 mb - 0.00 in0.0 mm 0.03 in0.8 mm
09:00 AM 56.2°F13.4°C 55.6°F13.1°C 98% 8.1 mph NE13.0 kmh NE 9.2 mph14.8 kmh 30.00 in1015.9 mb - 0.00 in0.0 mm 0.03 in0.8 mm
09:10 AM 56.7°F13.7°C 56.1°F13.4°C 98% 6.9 mph NE11.1 kmh NE 9.2 mph14.8 kmh 30.00 in1015.9 mb - 0.00 in0.0 mm 0.03 in0.8 mm
09:20 AM 56.3°F13.5°C 55.7°F13.2°C 98% 6.9 mph E11.1 kmh E 8.1 mph13.0 kmh 30.02 in1016.6 mb - 0.00 in0.0 mm 0.03 in0.8 mm
09:30 AM 55.9°F13.3°C 55.4°F13.0°C 98% 6.9 mph ENE11.1 kmh ENE 8.1 mph13.0 kmh 30.03 in1016.9 mb - 0.00 in0.0 mm 0.03 in0.8 mm
09:40 AM 55.9°F13.3°C 55.4°F13.0°C 98% 6.9 mph E11.1 kmh E 9.2 mph14.8 kmh 30.03 in1016.9 mb - 0.00 in0.0 mm 0.03 in0.8 mm
09:50 AM 56.0°F13.3°C 55.4°F13.0°C 98% 4.6 mph ENE7.4 kmh ENE 8.1 mph13.0 kmh 30.03 in1016.9 mb - 0.00 in0.0 mm 0.03 in0.8 mm
10:00 AM 56.4°F13.6°C 55.9°F13.3°C 98% 4.6 mph E7.4 kmh E 8.1 mph13.0 kmh 30.03 in1016.9 mb - 0.00 in0.0 mm 0.03 in0.8 mm
10:10 AM 56.5°F13.6°C 55.6°F13.1°C 97% 4.6 mph E7.4 kmh E 5.8 mph9.3 kmh 30.03 in1016.9 mb - 0.00 in0.0 mm 0.03 in0.8 mm
10:20 AM 56.8°F13.8°C 56.0°F13.3°C 97% 6.9 mph NE11.1 kmh NE 6.9 mph11.1 kmh 30.03 in1016.9 mb - 0.00 in0.0 mm 0.03 in0.8 mm
10:30 AM 57.0°F13.9°C 55.9°F13.3°C 96% 6.9 mph E11.1 kmh E 8.1 mph13.0 kmh 30.03 in1016.9 mb - 0.00 in0.0 mm 0.03 in0.8 mm
10:40 AM 57.6°F14.2°C 56.1°F13.4°C 95% 6.9 mph E11.1 kmh E 8.1 mph13.0 kmh 30.03 in1016.9 mb - 0.00 in0.0 mm 0.03 in0.8 mm
10:50 AM 57.6°F14.2°C 55.8°F13.2°C 94% 6.9 mph E11.1 kmh E 8.1 mph13.0 kmh 30.03 in1016.9 mb - 0.00 in0.0 mm 0.03 in0.8 mm
11:00 AM 57.7°F14.3°C 56.0°F13.3°C 94% 4.6 mph E7.4 kmh E 8.1 mph13.0 kmh 30.03 in1016.9 mb - 0.00 in0.0 mm 0.03 in0.8 mm
11:10 AM 57.9°F14.4°C 55.9°F13.3°C 93% 4.6 mph ENE7.4 kmh ENE 5.8 mph9.3 kmh 30.03 in1016.9 mb - 0.00 in0.0 mm 0.03 in0.8 mm
11:20 AM 58.1°F14.5°C 56.1°F13.4°C 93% 5.8 mph NE9.3 kmh NE 5.8 mph9.3 kmh 30.03 in1016.9 mb - 0.00 in0.0 mm 0.03 in0.8 mm
11:30 AM 57.6°F14.2°C 55.3°F12.9°C 92% 5.8 mph E9.3 kmh E 6.9 mph11.1 kmh 30.03 in1016.9 mb - 0.00 in0.0 mm 0.03 in0.8 mm
11:40 AM 57.7°F14.3°C 55.1°F12.8°C 91% 4.6 mph ESE7.4 kmh ESE 5.8 mph9.3 kmh 30.03 in1016.9 mb - 0.00 in0.0 mm 0.03 in0.8 mm
11:50 AM 57.6°F14.2°C 55.0°F12.8°C 91% 5.8 mph E9.3 kmh E 8.1 mph13.0 kmh 30.03 in1016.9 mb - 0.00 in0.0 mm 0.03 in0.8 mm
12:00 PM 57.2°F14.0°C 54.3°F12.4°C 90% 5.8 mph E9.3 kmh E 6.9 mph11.1 kmh 30.03 in1016.9 mb - 0.00 in0.0 mm 0.03 in0.8 mm
12:10 PM 57.2°F14.0°C 54.3°F12.4°C 90% 5.8 mph E9.3 kmh E 6.9 mph11.1 kmh 30.00 in1015.9 mb - 0.00 in0.0 mm 0.03 in0.8 mm
12:30 PM 57.6°F14.2°C 55.0°F12.8°C 91% 5.8 mph E9.3 kmh E 6.9 mph11.1 kmh 30.03 in1016.9 mb - 0.00 in0.0 mm 0.03 in0.8 mm
12:40 PM 57.9°F14.4°C 55.3°F12.9°C 91% 5.8 mph E9.3 kmh E 8.1 mph13.0 kmh 30.03 in1016.9 mb - 0.00 in0.0 mm 0.03 in0.8 mm
12:50 PM 57.9°F14.4°C 55.0°F12.8°C 90% 4.6 mph E7.4 kmh E 6.9 mph11.1 kmh 30.03 in1016.9 mb - 0.00 in0.0 mm 0.03 in0.8 mm
01:00 PM 57.9°F14.4°C 55.0°F12.8°C 90% 4.6 mph E7.4 kmh E 5.8 mph9.3 kmh 30.03 in1016.9 mb - 0.00 in0.0 mm 0.03 in0.8 mm
01:10 PM 58.3°F14.6°C 55.4°F13.0°C 90% 4.6 mph E7.4 kmh E 4.6 mph7.4 kmh 30.03 in1016.9 mb - 0.00 in0.0 mm 0.03 in0.8 mm
01:20 PM 58.5°F14.7°C 55.2°F12.9°C 89% 2.3 mph E3.7 kmh E 3.5 mph5.6 kmh 30.03 in1016.9 mb - 0.00 in0.0 mm 0.03 in0.8 mm
01:30 PM 58.6°F14.8°C 55.4°F13.0°C 89% 3.5 mph E5.6 kmh E 4.6 mph7.4 kmh 30.03 in1016.9 mb - 0.00 in0.0 mm 0.03 in0.8 mm
01:40 PM 58.9°F14.9°C 55.4°F13.0°C 88% 3.5 mph ENE5.6 kmh ENE 4.6 mph7.4 kmh 30.03 in1016.9 mb - 0.00 in0.0 mm 0.03 in0.8 mm
01:50 PM 59.4°F15.2°C 55.5°F13.1°C 87% 4.6 mph E7.4 kmh E 5.8 mph9.3 kmh 30.03 in1016.9 mb - 0.00 in0.0 mm 0.03 in0.8 mm
02:00 PM 59.9°F15.5°C 56.0°F13.3°C 87% 3.5 mph E5.6 kmh E 3.5 mph5.6 kmh 30.03 in1016.9 mb - 0.00 in0.0 mm 0.03 in0.8 mm
02:10 PM 60.1°F15.6°C 55.6°F13.1°C 85% 2.3 mph SE3.7 kmh SE 4.6 mph7.4 kmh 30.03 in1016.9 mb - 0.00 in0.0 mm 0.03 in0.8 mm
02:20 PM 59.5°F15.3°C 54.7°F12.6°C 84% 3.5 mph E5.6 kmh E 3.5 mph5.6 kmh 30.03 in1016.9 mb - 0.00 in0.0 mm 0.03 in0.8 mm
02:30 PM 60.1°F15.6°C 55.2°F12.9°C 84% 3.5 mph ENE5.6 kmh ENE 3.5 mph5.6 kmh 30.03 in1016.9 mb - 0.00 in0.0 mm 0.03 in0.8 mm
02:40 PM 60.6°F15.9°C 55.0°F12.8°C 82% 2.3 mph E3.7 kmh E 3.5 mph5.6 kmh 30.03 in1016.9 mb - 0.00 in0.0 mm 0.03 in0.8 mm
02:50 PM 61.3°F16.3°C 55.5°F13.1°C 81% 3.5 mph ESE5.6 kmh ESE 4.6 mph7.4 kmh 30.03 in1016.9 mb - 0.00 in0.0 mm 0.03 in0.8 mm
03:00 PM 62.1°F16.7°C 55.2°F12.9°C 78% 2.3 mph SSE3.7 kmh SSE 3.5 mph5.6 kmh 30.03 in1016.9 mb - 0.00 in0.0 mm 0.03 in0.8 mm
03:10 PM 62.4°F16.9°C 54.8°F12.7°C 76% 2.3 mph E3.7 kmh E 2.3 mph3.7 kmh 30.03 in1016.9 mb - 0.00 in0.0 mm 0.03 in0.8 mm
03:20 PM 62.9°F17.2°C 54.9°F12.7°C 75% 1.2 mph S1.9 kmh S 3.5 mph5.6 kmh 30.03 in1016.9 mb - 0.00 in0.0 mm 0.03 in0.8 mm
03:30 PM 62.4°F16.9°C 53.7°F12.1°C 73% 2.3 mph SSE3.7 kmh SSE 3.5 mph5.6 kmh 30.03 in1016.9 mb - 0.00 in0.0 mm 0.03 in0.8 mm
03:40 PM 62.6°F17.0°C 54.2°F12.3°C 74% 4.6 mph ESE7.4 kmh ESE 5.8 mph9.3 kmh 30.03 in1016.9 mb - 0.00 in0.0 mm 0.03 in0.8 mm
03:50 PM 62.7°F17.1°C 54.6°F12.6°C 75% 3.5 mph E5.6 kmh E 4.6 mph7.4 kmh 30.03 in1016.9 mb - 0.00 in0.0 mm 0.03 in0.8 mm
04:00 PM 62.6°F17.0°C 54.6°F12.6°C 75% 3.5 mph SE5.6 kmh SE 4.6 mph7.4 kmh 30.03 in1016.9 mb - 0.00 in0.0 mm 0.03 in0.8 mm
04:10 PM 62.0°F16.7°C 53.9°F12.2°C 75% 3.5 mph ESE5.6 kmh ESE 5.8 mph9.3 kmh 30.00 in1015.9 mb - 0.00 in0.0 mm 0.03 in0.8 mm
04:20 PM 62.1°F16.7°C 54.1°F12.3°C 75% 2.3 mph SE3.7 kmh SE 4.6 mph7.4 kmh 30.02 in1016.6 mb - 0.00 in0.0 mm 0.03 in0.8 mm
04:30 PM 61.4°F16.3°C 53.1°F11.7°C 74% 3.5 mph SE5.6 kmh SE 4.6 mph7.4 kmh 30.03 in1016.9 mb - 0.00 in0.0 mm 0.03 in0.8 mm
04:40 PM 60.8°F16.0°C 53.2°F11.8°C 76% 2.3 mph SE3.7 kmh SE 2.3 mph3.7 kmh 30.00 in1015.9 mb - 0.00 in0.0 mm 0.03 in0.8 mm
04:50 PM 60.3°F15.7°C 53.1°F11.7°C 77% 3.5 mph SE5.6 kmh SE 3.5 mph5.6 kmh 30.02 in1016.6 mb - 0.00 in0.0 mm 0.03 in0.8 mm
05:00 PM 60.6°F15.9°C 54.1°F12.3°C 79% 2.3 mph SE3.7 kmh SE 2.3 mph3.7 kmh 30.03 in1016.9 mb - 0.00 in0.0 mm 0.03 in0.8 mm
05:10 PM 60.0°F15.6°C 53.1°F11.7°C 78% 2.3 mph S3.7 kmh S 3.5 mph5.6 kmh 30.03 in1016.9 mb - 0.00 in0.0 mm 0.03 in0.8 mm
05:20 PM 59.9°F15.5°C 53.4°F11.9°C 79% Calm Calm 1.2 mph1.9 kmh 30.03 in1016.9 mb - 0.00 in0.0 mm 0.03 in0.8 mm
05:30 PM 60.1°F15.6°C 53.6°F12.0°C 79% 3.5 mph SSE5.6 kmh SSE 3.5 mph5.6 kmh 30.03 in1016.9 mb - 0.00 in0.0 mm 0.03 in0.8 mm
05:40 PM 59.9°F15.5°C 53.4°F11.9°C 79% 2.3 mph S3.7 kmh S 3.5 mph5.6 kmh 30.03 in1016.9 mb - 0.00 in0.0 mm 0.03 in0.8 mm
05:50 PM 59.7°F15.4°C 53.2°F11.8°C 79% 1.2 mph E1.9 kmh E 1.2 mph1.9 kmh 30.03 in1016.9 mb - 0.00 in0.0 mm 0.03 in0.8 mm
06:00 PM 59.4°F15.2°C 52.5°F11.4°C 78% 2.3 mph SE3.7 kmh SE 2.3 mph3.7 kmh 30.03 in1016.9 mb - 0.00 in0.0 mm 0.03 in0.8 mm
06:10 PM 58.8°F14.9°C 52.3°F11.3°C 79% 2.3 mph E3.7 kmh E 2.3 mph3.7 kmh 30.03 in1016.9 mb - 0.00 in0.0 mm 0.03 in0.8 mm
06:20 PM 58.5°F14.7°C 52.0°F11.1°C 79% Calm Calm 1.2 mph1.9 kmh 30.03 in1016.9 mb - 0.00 in0.0 mm 0.03 in0.8 mm
06:30 PM 58.5°F14.7°C 52.3°F11.3°C 80% 2.3 mph E3.7 kmh E 2.3 mph3.7 kmh 30.03 in1016.9 mb - 0.00 in0.0 mm 0.03 in0.8 mm
06:40 PM 58.1°F14.5°C 52.0°F11.1°C 80% 2.3 mph ESE3.7 kmh ESE 2.3 mph3.7 kmh 30.03 in1016.9 mb - 0.00 in0.0 mm 0.03 in0.8 mm
06:50 PM 58.1°F14.5°C 52.3°F11.3°C 81% 2.3 mph SE3.7 kmh SE 4.6 mph7.4 kmh 30.03 in1016.9 mb - 0.00 in0.0 mm 0.03 in0.8 mm
07:00 PM 57.6°F14.2°C 51.8°F11.0°C 81% Calm Calm 1.2 mph1.9 kmh 30.03 in1016.9 mb - 0.00 in0.0 mm 0.03 in0.8 mm
07:10 PM 57.2°F14.0°C 51.4°F10.8°C 81% 2.3 mph E3.7 kmh E 3.5 mph5.6 kmh 30.03 in1016.9 mb - 0.00 in0.0 mm 0.03 in0.8 mm
07:20 PM 56.8°F13.8°C 51.4°F10.8°C 82% 2.3 mph E3.7 kmh E 3.5 mph5.6 kmh 30.03 in1016.9 mb - 0.00 in0.0 mm 0.03 in0.8 mm
07:30 PM 56.7°F13.7°C 51.2°F10.7°C 82% 3.5 mph SE5.6 kmh SE 3.5 mph5.6 kmh 30.03 in1016.9 mb - 0.00 in0.0 mm 0.03 in0.8 mm
07:40 PM 56.4°F13.6°C 51.3°F10.7°C 83% 2.3 mph ESE3.7 kmh ESE 3.5 mph5.6 kmh 30.03 in1016.9 mb - 0.00 in0.0 mm 0.03 in0.8 mm
07:50 PM 56.3°F13.5°C 51.2°F10.7°C 83% 2.3 mph ESE3.7 kmh ESE 3.5 mph5.6 kmh 30.03 in1016.9 mb - 0.00 in0.0 mm 0.03 in0.8 mm
08:00 PM 56.0°F13.3°C 51.2°F10.7°C 84% 2.3 mph SE3.7 kmh SE 2.3 mph3.7 kmh 30.03 in1016.9 mb - 0.00 in0.0 mm 0.03 in0.8 mm
08:10 PM 55.9°F13.3°C 51.2°F10.7°C 84% 2.3 mph ESE3.7 kmh ESE 3.5 mph5.6 kmh 30.06 in1017.9 mb - 0.00 in0.0 mm 0.03 in0.8 mm
08:20 PM 55.7°F13.2°C 50.9°F10.5°C 84% 2.3 mph E3.7 kmh E 2.3 mph3.7 kmh 30.06 in1017.9 mb - 0.00 in0.0 mm 0.03 in0.8 mm
08:30 PM 55.6°F13.1°C 51.1°F10.6°C 85% 3.5 mph E5.6 kmh E 3.5 mph5.6 kmh 30.06 in1017.9 mb - 0.00 in0.0 mm 0.03 in0.8 mm
08:40 PM 55.4°F13.0°C 51.0°F10.6°C 85% 3.5 mph E5.6 kmh E 3.5 mph5.6 kmh 30.06 in1017.9 mb - 0.00 in0.0 mm 0.03 in0.8 mm
08:50 PM 55.2°F12.9°C 51.1°F10.6°C 86% 3.5 mph ENE5.6 kmh ENE 3.5 mph5.6 kmh 30.06 in1017.9 mb - 0.00 in0.0 mm 0.03 in0.8 mm
09:00 PM 55.0°F12.8°C 50.9°F10.5°C 86% 4.6 mph NE7.4 kmh NE 4.6 mph7.4 kmh 30.06 in1017.9 mb - 0.00 in0.0 mm 0.03 in0.8 mm
09:10 PM 54.7°F12.6°C 50.9°F10.5°C 87% 3.5 mph ENE5.6 kmh ENE 4.6 mph7.4 kmh 30.06 in1017.9 mb - 0.00 in0.0 mm 0.03 in0.8 mm
09:20 PM 54.3°F12.4°C 50.5°F10.3°C 87% 3.5 mph NE5.6 kmh NE 3.5 mph5.6 kmh 30.06 in1017.9 mb - 0.00 in0.0 mm 0.03 in0.8 mm
09:30 PM 54.3°F12.4°C 50.8°F10.4°C 88% 2.3 mph NE3.7 kmh NE 3.5 mph5.6 kmh 30.06 in1017.9 mb - 0.00 in0.0 mm 0.03 in0.8 mm
09:40 PM 54.0°F12.2°C 50.5°F10.3°C 88% 3.5 mph E5.6 kmh E 3.5 mph5.6 kmh 30.09 in1019.0 mb - 0.00 in0.0 mm 0.03 in0.8 mm
09:50 PM 54.0°F12.2°C 50.5°F10.3°C 88% 3.5 mph ENE5.6 kmh ENE 3.5 mph5.6 kmh 30.07 in1018.3 mb - 0.00 in0.0 mm 0.03 in0.8 mm
10:00 PM 53.8°F12.1°C 50.3°F10.2°C 88% 4.6 mph NE7.4 kmh NE 4.6 mph7.4 kmh 30.06 in1017.9 mb - 0.00 in0.0 mm 0.03 in0.8 mm
10:10 PM 53.4°F11.9°C 50.0°F10.0°C 88% 3.5 mph NE5.6 kmh NE 4.6 mph7.4 kmh 30.06 in1017.9 mb - 0.00 in0.0 mm 0.03 in0.8 mm
10:20 PM 53.1°F11.7°C 49.6°F9.8°C 88% 2.3 mph E3.7 kmh E 3.5 mph5.6 kmh 30.06 in1017.9 mb - 0.00 in0.0 mm 0.03 in0.8 mm
10:30 PM 52.9°F11.6°C 49.4°F9.7°C 88% 3.5 mph NE5.6 kmh NE 3.5 mph5.6 kmh 30.06 in1017.9 mb - 0.00 in0.0 mm 0.03 in0.8 mm
10:40 PM 52.5°F11.4°C 49.1°F9.5°C 88% 3.5 mph NE5.6 kmh NE 3.5 mph5.6 kmh 30.09 in1019.0 mb - 0.00 in0.0 mm 0.03 in0.8 mm
10:50 PM 52.7°F11.5°C 49.5°F9.7°C 89% 3.5 mph NE5.6 kmh NE 4.6 mph7.4 kmh 30.09 in1019.0 mb - 0.00 in0.0 mm 0.03 in0.8 mm
11:00 PM 52.6°F11.4°C 49.4°F9.7°C 89% 3.5 mph NE5.6 kmh NE 3.5 mph5.6 kmh 30.09 in1019.0 mb - 0.00 in0.0 mm 0.24 in6.1 mm
11:10 PM 52.5°F11.4°C 49.4°F9.7°C 89% 1.2 mph E1.9 kmh E 2.3 mph3.7 kmh 30.09 in1019.0 mb - 0.00 in0.0 mm 0.24 in6.1 mm
11:20 PM 52.5°F11.4°C 49.7°F9.8°C 90% Calm Calm 1.2 mph1.9 kmh 30.07 in1018.3 mb - 0.00 in0.0 mm 0.24 in6.1 mm